createdAt,value
2022-11-05T00:02:00.141Z,84.30
2022-11-05T00:05:21.645Z,84.27
2022-11-05T00:08:42.773Z,84.43
2022-11-05T00:12:04.081Z,85.07
2022-11-05T00:15:25.416Z,85.13
2022-11-05T00:18:28.258Z,85.63
2022-11-05T00:21:49.289Z,86.30
2022-11-05T00:25:10.573Z,86.82
2022-11-05T00:28:13.201Z,86.71
2022-11-05T00:31:15.921Z,86.80
2022-11-05T00:34:18.370Z,87.03
2022-11-05T00:37:21.151Z,87.14
2022-11-05T00:40:23.983Z,86.91
2022-11-05T00:43:44.908Z,86.84
2022-11-05T00:46:47.536Z,87.40
2022-11-05T00:49:49.844Z,87.67
2022-11-05T00:52:57.727Z,87.42
2022-11-05T00:56:00.697Z,87.23
2022-11-05T00:59:03.061Z,86.84
2022-11-05T01:02:05.831Z,86.72
2022-11-05T01:05:08.938Z,86.51
2022-11-05T01:08:12.576Z,85.63
2022-11-05T01:11:33.275Z,86.22
2022-11-05T01:14:35.909Z,85.46
2022-11-05T01:17:38.713Z,86.61
2022-11-05T01:20:41.386Z,87.02
2022-11-05T01:23:43.866Z,86.21
2022-11-05T01:26:46.500Z,86.02
2022-11-05T01:29:49.160Z,86.24
2022-11-05T01:32:51.920Z,86.32
2022-11-05T01:35:54.326Z,85.67
2022-11-05T01:38:56.916Z,85.85
2022-11-05T01:41:59.549Z,85.86
2022-11-05T01:45:10.754Z,86.13
2022-11-05T01:48:15.526Z,85.34
2022-11-05T01:51:21.929Z,85.01
2022-11-05T01:54:29.596Z,84.81
2022-11-05T01:57:33.021Z,84.78
2022-11-05T02:00:36.413Z,85.09
2022-11-05T02:03:39.980Z,84.99
2022-11-05T02:06:46.192Z,84.86
2022-11-05T02:10:01.182Z,85.48
2022-11-05T02:13:03.833Z,86.08
2022-11-05T02:16:17.344Z,86.78
2022-11-05T02:19:51.966Z,87.57
2022-11-05T02:23:20.477Z,87.44
2022-11-05T02:26:37.702Z,86.48
2022-11-05T02:29:42.992Z,86.69
2022-11-05T02:33:29.016Z,86.43
2022-11-05T02:36:56.632Z,86.63
2022-11-05T02:40:24.417Z,86.66
2022-11-05T02:43:53.038Z,86.46
2022-11-05T02:47:04.404Z,86.28
2022-11-05T02:50:35.190Z,86.01
2022-11-05T02:53:58.894Z,86.06
2022-11-05T02:57:03.067Z,86.39
2022-11-05T03:00:27.294Z,86.35
2022-11-05T03:03:44.823Z,86.80
2022-11-05T03:06:53.006Z,86.73
2022-11-05T03:10:09.954Z,86.97
2022-11-05T03:13:27.254Z,86.86
2022-11-05T03:16:39.527Z,86.79
2022-11-05T03:19:41.905Z,86.84
2022-11-05T03:22:51.522Z,87.10
2022-11-05T03:26:10.494Z,86.90
2022-11-05T03:29:19.802Z,86.37
2022-11-05T03:32:23.968Z,86.95
2022-11-05T03:35:31.735Z,87.48
2022-11-05T03:38:38.985Z,87.64
2022-11-05T03:41:46.821Z,87.61
2022-11-05T03:44:52.663Z,87.75
2022-11-05T03:47:58.847Z,87.22
2022-11-05T03:51:10.553Z,87.26
2022-11-05T03:54:13.460Z,87.26
2022-11-05T03:57:29.565Z,87.52
2022-11-05T04:00:32.541Z,87.65
2022-11-05T04:03:36.656Z,87.18
2022-11-05T04:06:57.665Z,87.56
2022-11-05T04:10:18.827Z,87.22
2022-11-05T04:13:24.141Z,87.45
2022-11-05T04:16:45.292Z,87.31
2022-11-05T04:20:06.189Z,87.19
2022-11-05T04:23:28.175Z,87.84
2022-11-05T04:26:30.661Z,88.11
2022-11-05T04:29:51.977Z,87.91
2022-11-05T04:33:06.284Z,87.64
2022-11-05T04:36:09.108Z,88.46
2022-11-05T04:39:11.496Z,88.40
2022-11-05T04:42:14.004Z,87.97
2022-11-05T04:45:16.616Z,88.61
2022-11-05T04:48:19.224Z,89.26
2022-11-05T04:51:21.782Z,89.00
2022-11-05T04:54:24.110Z,88.51
2022-11-05T04:57:26.746Z,87.96
2022-11-05T05:00:29.241Z,87.95
2022-11-05T05:03:32.000Z,86.89
2022-11-05T05:06:34.547Z,86.29
2022-11-05T05:09:37.124Z,85.73
2022-11-05T05:12:39.789Z,86.12
2022-11-05T05:15:42.119Z,86.47
2022-11-05T05:18:46.394Z,86.81
2022-11-05T05:21:49.116Z,86.57
2022-11-05T05:24:52.924Z,86.87
2022-11-05T05:27:58.832Z,86.53
2022-11-05T05:31:01.487Z,86.80
2022-11-05T05:34:05.520Z,87.12
2022-11-05T05:37:08.269Z,87.40
2022-11-05T05:40:11.303Z,88.13
2022-11-05T05:43:14.076Z,88.00
2022-11-05T05:46:19.102Z,88.10
2022-11-05T05:49:21.625Z,88.37
2022-11-05T05:52:24.173Z,88.39
2022-11-05T05:55:26.494Z,88.64
2022-11-05T05:58:33.364Z,88.64
2022-11-05T06:01:35.902Z,88.83
2022-11-05T06:04:38.678Z,89.08
2022-11-05T06:07:41.492Z,88.99
2022-11-05T06:10:50.547Z,88.90
2022-11-05T06:13:53.271Z,88.68
2022-11-05T06:16:55.650Z,88.49
2022-11-05T06:19:58.474Z,88.75
2022-11-05T06:23:00.901Z,89.10
2022-11-05T06:26:05.342Z,88.46
2022-11-05T06:29:08.591Z,88.79
2022-11-05T06:32:11.269Z,89.00
2022-11-05T06:35:14.032Z,88.53
2022-11-05T06:38:16.861Z,89.08
2022-11-05T06:41:19.551Z,89.44
2022-11-05T06:44:22.481Z,89.39
2022-11-05T06:47:24.852Z,89.19
2022-11-05T06:50:29.754Z,89.55
2022-11-05T06:53:32.543Z,90.11
2022-11-05T06:56:34.887Z,90.05
2022-11-05T06:59:38.973Z,89.67
2022-11-05T07:02:41.325Z,89.36
2022-11-05T07:05:46.366Z,89.77
2022-11-05T07:08:49.097Z,90.06
2022-11-05T07:11:51.647Z,90.09
2022-11-05T07:14:54.630Z,90.18
2022-11-05T07:17:58.846Z,89.96
2022-11-05T07:21:01.632Z,89.67
2022-11-05T07:24:04.454Z,89.68
2022-11-05T07:27:06.808Z,89.44
2022-11-05T07:30:10.645Z,89.38
2022-11-05T07:33:13.824Z,89.09
2022-11-05T07:36:16.971Z,88.89
2022-11-05T07:39:19.804Z,89.27
2022-11-05T07:42:22.479Z,89.39
2022-11-05T07:45:26.318Z,89.78
2022-11-05T07:48:28.756Z,89.58
2022-11-05T07:51:31.523Z,89.48
2022-11-05T07:54:34.136Z,89.58
2022-11-05T07:57:47.419Z,90.46
2022-11-05T08:00:50.070Z,90.01
2022-11-05T08:03:52.569Z,89.63
2022-11-05T08:06:55.260Z,90.12
2022-11-05T08:09:57.734Z,90.15
2022-11-05T08:13:00.415Z,90.82
2022-11-05T08:16:04.227Z,90.67
2022-11-05T08:19:06.729Z,89.84
2022-11-05T08:22:09.033Z,89.91
2022-11-05T08:25:12.780Z,89.51
2022-11-05T08:28:15.305Z,89.36
2022-11-05T08:31:18.130Z,89.17
2022-11-05T08:34:20.472Z,89.55
2022-11-05T08:37:23.492Z,89.54
2022-11-05T08:40:27.107Z,89.69
2022-11-05T08:43:29.532Z,89.81
2022-11-05T08:46:32.072Z,89.76
2022-11-05T08:49:34.434Z,90.08
2022-11-05T08:52:40.354Z,89.85
2022-11-05T08:55:43.935Z,90.11
2022-11-05T08:58:46.544Z,89.80
2022-11-05T09:01:50.576Z,89.50
2022-11-05T09:04:53.037Z,89.51
2022-11-05T09:08:00.761Z,89.58
2022-11-05T09:11:04.045Z,90.02
2022-11-05T09:14:06.394Z,90.24
2022-11-05T09:17:20.538Z,90.57
2022-11-05T09:20:25.524Z,90.88
2022-11-05T09:23:28.046Z,90.61
2022-11-05T09:26:30.702Z,90.84
2022-11-05T09:29:33.025Z,90.66
2022-11-05T09:32:36.153Z,89.89
2022-11-05T09:35:39.926Z,89.60
2022-11-05T09:38:42.534Z,89.62
2022-11-05T09:41:46.891Z,89.62
2022-11-05T09:45:18.652Z,89.60
2022-11-05T09:48:24.974Z,89.55
2022-11-05T09:51:27.353Z,89.39
2022-11-05T09:54:33.212Z,89.84
2022-11-05T09:57:47.998Z,89.75
2022-11-05T10:00:52.858Z,89.61
2022-11-05T10:03:58.263Z,89.79
2022-11-05T10:07:04.304Z,90.24
2022-11-05T10:10:09.091Z,89.73
2022-11-05T10:13:41.236Z,90.23
2022-11-05T10:16:48.945Z,89.73
2022-11-05T10:20:30.477Z,89.98
2022-11-05T10:23:33.676Z,89.92
2022-11-05T10:26:36.356Z,89.25
2022-11-05T10:29:39.230Z,89.42
2022-11-05T10:32:43.716Z,89.37
2022-11-05T10:35:57.587Z,88.93
2022-11-05T10:39:17.546Z,89.29
2022-11-05T10:42:38.686Z,89.39
2022-11-05T10:45:48.955Z,89.13
2022-11-05T10:49:15.235Z,88.64
2022-11-05T10:52:25.058Z,89.19
2022-11-05T10:55:29.270Z,89.63
2022-11-05T10:58:34.807Z,89.16
2022-11-05T11:01:37.825Z,89.19
2022-11-05T11:04:40.598Z,89.57
2022-11-05T11:07:43.405Z,89.54
2022-11-05T11:10:58.826Z,89.39
2022-11-05T11:14:13.297Z,89.50
2022-11-05T11:17:36.072Z,89.71
2022-11-05T11:20:44.298Z,89.50
2022-11-05T11:23:58.343Z,89.61
2022-11-05T11:27:09.390Z,89.24
2022-11-05T11:30:18.330Z,89.20
2022-11-05T11:33:26.359Z,90.06
2022-11-05T11:36:45.257Z,89.50
2022-11-05T11:39:51.981Z,89.06
2022-11-05T11:42:57.793Z,88.50
2022-11-05T11:46:06.059Z,88.92
2022-11-05T11:49:39.138Z,89.28
2022-11-05T11:52:43.068Z,89.36
2022-11-05T11:56:20.312Z,89.00
2022-11-05T11:59:46.902Z,89.49
2022-11-05T12:03:20.355Z,89.57
2022-11-05T12:06:40.229Z,89.02
2022-11-05T12:10:21.985Z,89.43
2022-11-05T12:13:49.918Z,90.00
2022-11-05T12:17:23.460Z,90.15
2022-11-05T12:21:04.806Z,90.02
2022-11-05T12:24:22.240Z,89.47
2022-11-05T12:27:44.226Z,89.64
2022-11-05T12:30:59.027Z,89.71
2022-11-05T12:34:38.264Z,89.96
2022-11-05T12:38:19.034Z,90.45
2022-11-05T12:41:31.494Z,90.27
2022-11-05T12:44:57.261Z,90.09
2022-11-05T12:48:02.978Z,90.13
2022-11-05T12:51:17.257Z,89.94
2022-11-05T12:54:44.289Z,89.73
2022-11-05T12:57:51.634Z,90.29
2022-11-05T13:01:24.977Z,90.17
2022-11-05T13:04:50.733Z,90.25
2022-11-05T13:08:07.651Z,90.13
2022-11-05T13:11:26.273Z,90.18
2022-11-05T13:14:33.478Z,90.64
2022-11-05T13:17:51.625Z,90.92
2022-11-05T13:20:56.556Z,90.90
2022-11-05T13:24:11.024Z,90.83
2022-11-05T13:27:22.445Z,90.85
2022-11-05T13:30:30.369Z,91.26
2022-11-05T13:33:40.396Z,91.03
2022-11-05T13:37:42.369Z,90.95
2022-11-05T13:41:24.086Z,91.27
2022-11-05T13:44:50.359Z,91.24
2022-11-05T13:48:22.210Z,91.53
2022-11-05T13:51:48.917Z,91.65
2022-11-05T13:55:31.353Z,91.59
2022-11-05T13:58:52.018Z,91.88
2022-11-05T14:02:04.526Z,91.75
2022-11-05T14:05:17.323Z,91.68
2022-11-05T14:08:25.406Z,91.86
2022-11-05T14:11:47.747Z,91.80
2022-11-05T14:14:59.167Z,90.73
2022-11-05T14:18:39.359Z,89.23
2022-11-05T14:21:52.968Z,88.92
2022-11-05T14:24:55.420Z,88.67
2022-11-05T14:27:58.306Z,88.01
2022-11-05T14:31:13.361Z,87.83
2022-11-05T14:34:16.479Z,87.92
2022-11-05T14:37:29.813Z,88.53
2022-11-05T14:40:38.050Z,88.06
2022-11-05T14:43:47.369Z,88.09
2022-11-05T14:46:53.679Z,88.11
2022-11-05T14:50:07.739Z,87.65
2022-11-05T14:53:33.696Z,87.47
2022-11-05T14:56:56.478Z,87.87
2022-11-05T15:00:00.877Z,87.47
2022-11-05T15:03:32.890Z,87.37
2022-11-05T15:06:36.910Z,86.87
2022-11-05T15:09:58.204Z,86.87
2022-11-05T15:13:06.053Z,87.28
2022-11-05T15:16:08.961Z,87.07
2022-11-05T15:19:19.989Z,86.92
2022-11-05T15:22:35.769Z,86.40
2022-11-05T15:25:55.049Z,86.06
2022-11-05T15:28:57.632Z,86.14
2022-11-05T15:32:00.449Z,86.85
2022-11-05T15:35:17.573Z,86.50
2022-11-05T15:38:34.046Z,86.04
2022-11-05T15:41:36.673Z,86.14
2022-11-05T15:44:41.431Z,85.82
2022-11-05T15:47:46.514Z,85.80
2022-11-05T15:50:49.986Z,86.07
2022-11-05T15:57:29.035Z,85.42
2022-11-05T16:00:34.521Z,85.60
2022-11-05T16:03:39.281Z,84.93
2022-11-05T16:06:44.900Z,85.45
2022-11-05T16:10:01.821Z,84.64
2022-11-05T16:13:36.659Z,85.39
2022-11-05T16:16:39.020Z,84.99
2022-11-05T16:19:42.512Z,83.88
2022-11-05T16:22:47.095Z,83.96
2022-11-05T16:25:50.599Z,84.87
2022-11-05T16:28:54.245Z,84.11
2022-11-05T16:31:59.010Z,84.96
2022-11-05T16:35:05.237Z,84.66
2022-11-05T16:38:12.169Z,85.01
2022-11-05T16:41:17.180Z,84.79
2022-11-05T16:44:20.086Z,84.20
2022-11-05T16:47:23.260Z,84.25
2022-11-05T16:50:31.313Z,83.92
2022-11-05T16:53:34.345Z,83.89
2022-11-05T16:56:37.364Z,84.37
2022-11-05T16:59:40.254Z,84.49
2022-11-05T17:02:43.334Z,84.35
2022-11-05T17:05:46.643Z,84.57
2022-11-05T17:08:49.615Z,84.46
2022-11-05T17:11:52.866Z,84.73
2022-11-05T17:14:55.896Z,84.29
2022-11-05T17:17:59.551Z,84.56
2022-11-05T17:21:02.435Z,84.16
2022-11-05T17:24:05.880Z,84.32
2022-11-05T17:27:08.768Z,84.27
2022-11-05T17:30:12.419Z,84.86
2022-11-05T17:33:16.444Z,84.80
2022-11-05T17:36:19.446Z,84.82
2022-11-05T17:39:28.726Z,85.10
2022-11-05T17:42:34.390Z,84.68
2022-11-05T17:45:44.828Z,84.20
2022-11-05T17:48:47.911Z,83.67
2022-11-05T17:51:50.763Z,83.68
2022-11-05T17:54:54.058Z,83.98
2022-11-05T17:57:57.247Z,84.05
2022-11-05T18:00:59.993Z,84.06
2022-11-05T18:04:08.717Z,83.98
2022-11-05T18:07:11.843Z,83.80
2022-11-05T18:10:16.312Z,83.53
2022-11-05T18:13:19.484Z,83.37
2022-11-05T18:16:22.298Z,83.19
2022-11-05T18:19:25.404Z,83.31
2022-11-05T18:22:28.377Z,83.37
2022-11-05T18:25:31.730Z,83.42
2022-11-05T18:28:34.689Z,83.79
2022-11-05T18:31:37.759Z,83.07
2022-11-05T18:34:40.714Z,82.74
2022-11-05T18:37:43.620Z,82.77
2022-11-05T18:40:46.585Z,82.49
2022-11-05T18:43:49.655Z,82.17
2022-11-05T18:46:58.253Z,82.55
2022-11-05T18:50:02.352Z,82.46
2022-11-05T18:53:05.372Z,82.22
2022-11-05T18:56:10.488Z,81.83
2022-11-05T19:02:41.945Z,82.01
2022-11-05T19:05:44.772Z,81.91
2022-11-05T19:08:47.971Z,81.91
2022-11-05T19:11:52.244Z,82.02
2022-11-05T19:15:00.921Z,81.39
2022-11-05T19:18:05.978Z,81.70
2022-11-05T19:21:11.351Z,82.02
2022-11-05T19:24:17.403Z,81.27
2022-11-05T19:27:20.559Z,81.25
2022-11-05T19:30:23.452Z,81.41
2022-11-05T19:33:26.440Z,81.67
2022-11-05T19:36:30.206Z,81.79
2022-11-05T19:39:33.233Z,81.83
2022-11-05T19:42:36.435Z,81.62
2022-11-05T19:45:45.056Z,81.21
2022-11-05T19:48:48.420Z,81.33
2022-11-05T19:51:52.133Z,80.89
2022-11-05T19:54:55.319Z,80.39
2022-11-05T19:57:58.594Z,80.71
2022-11-05T20:01:01.783Z,81.16
2022-11-05T20:04:05.877Z,80.84
2022-11-05T20:07:08.867Z,80.62
2022-11-05T20:10:11.629Z,80.41
2022-11-05T20:13:19.602Z,80.63
2022-11-05T20:16:28.554Z,81.33
2022-11-05T20:19:31.357Z,81.25
2022-11-05T20:22:34.520Z,81.44
2022-11-05T20:25:37.494Z,81.24
2022-11-05T20:28:42.763Z,80.86
2022-11-05T20:31:46.527Z,80.79
2022-11-05T20:34:49.255Z,80.75
2022-11-05T20:37:54.141Z,81.00
2022-11-05T20:40:57.306Z,80.99
2022-11-05T20:44:00.435Z,81.14
2022-11-05T20:47:03.303Z,81.17
2022-11-05T20:50:06.900Z,80.97
2022-11-05T20:53:11.431Z,81.52
2022-11-05T20:56:23.478Z,81.08
2022-11-05T20:59:26.517Z,81.08
2022-11-05T21:02:29.515Z,81.31
2022-11-05T21:05:35.657Z,81.71
2022-11-05T21:08:39.257Z,81.49
2022-11-05T21:12:00.588Z,81.78
2022-11-05T21:15:03.667Z,81.55
2022-11-05T21:18:06.646Z,81.71
2022-11-05T21:21:15.645Z,81.14
2022-11-05T21:24:18.501Z,80.96
2022-11-05T21:27:21.313Z,80.94
2022-11-05T21:30:24.415Z,81.66
2022-11-05T21:33:27.706Z,81.38
2022-11-05T21:36:30.497Z,81.40
2022-11-05T21:39:36.433Z,81.52
2022-11-05T21:42:40.764Z,81.45
2022-11-05T21:45:45.266Z,81.50
2022-11-05T21:48:48.224Z,81.34
2022-11-05T21:52:11.252Z,81.42
2022-11-05T21:55:32.745Z,81.44
2022-11-05T21:58:54.225Z,81.38
2022-11-05T22:02:01.720Z,81.41
2022-11-05T22:05:05.716Z,81.37
2022-11-05T22:08:09.506Z,81.08
2022-11-05T22:11:12.306Z,81.07
2022-11-05T22:14:14.860Z,81.20
2022-11-05T22:17:18.362Z,81.21
2022-11-05T22:20:22.721Z,81.03
2022-11-05T22:23:25.368Z,81.43
2022-11-05T22:26:28.341Z,81.59
2022-11-05T22:29:31.763Z,81.67
2022-11-05T22:32:34.491Z,81.23
2022-11-05T22:35:39.379Z,80.88
2022-11-05T22:38:42.060Z,81.08
2022-11-05T22:41:45.123Z,81.26
2022-11-05T22:44:47.743Z,80.99
2022-11-05T22:47:50.569Z,81.42
2022-11-05T22:50:53.440Z,81.56
2022-11-05T22:53:55.863Z,81.11
2022-11-05T22:56:58.329Z,81.49
2022-11-05T23:00:01.002Z,81.44
2022-11-05T23:03:03.876Z,82.02
2022-11-05T23:06:34.175Z,82.02
2022-11-05T23:09:55.460Z,81.92
2022-11-05T23:12:57.994Z,82.14
2022-11-05T23:16:18.640Z,82.24
2022-11-05T23:19:39.746Z,82.07
2022-11-05T23:23:00.892Z,82.54
2022-11-05T23:26:23.240Z,82.25
2022-11-05T23:29:27.016Z,82.07
2022-11-05T23:32:31.058Z,81.72
2022-11-05T23:35:53.350Z,81.56
2022-11-05T23:38:56.617Z,82.00
2022-11-05T23:42:17.588Z,82.09
2022-11-05T23:45:38.939Z,81.66
2022-11-05T23:48:41.242Z,81.91
2022-11-05T23:51:43.876Z,81.49
2022-11-05T23:54:46.796Z,81.34
2022-11-05T23:57:49.470Z,81.38
